FHB weather

Fernandina Beach Municipal Airport
Fernandina Beach, Florida, United States

Public forecast

Using degrees Fahrenheit for public forecast. Weather courtesy of forecast.io.

Closest aviation weather report (METAR) to Fernandina Beach Municipal Airport

Closest report is Naval Station Mayport (Admiral David L. Mcdonald Field), 13.4 nm (24.8 km) S. Retrieved 2019/11/18 10:01 UTC (5 minutes ago):

KNRB 181001Z 29005KT 10SM OVC028 09/09 A2986 RMK AO2 T00940094

Closest aviation forecast (TAF) to Fernandina Beach Municipal Airport

Closest forecast is Jacksonville International Airport, 13.7 nm (25.3 km) WSW. Retrieved 2019/11/18 06:24 UTC (4 hours ago):

TAF KJAX 180523Z 1806/1906 VRB02KT P6SM SCT030 BKN250 FM180900 26003KT P6SM SCT040 BKN060 BKN250 FM181500 27006KT P6SM SCT050 FM182200 26002KT P6SM FEW040 SCT250